Time;durP1;ratioP1;P1;durP2;ratioP2;P2;SDS_P1;SDS_P2;PMS_P1;PMS_P2;Temp;Humidity;BMP_temperature;BMP_pressure;BME280_temperature;BME280_humidity;BME280_pressure;Samples;Min_cycle;Max_cycle;Signal;HPM_P1;HPM_P2
2023/12/03 00:00:11;;;;;;;1.80;0.87;;;0.20;99.90;;;;;;4984905;28;20050;-79
2023/12/03 00:02:37;;;;;;;2.70;1.33;;;0.20;99.90;;;;;;5002258;28;20078;-77
2023/12/03 00:05:03;;;;;;;0.70;0.70;;;0.20;99.90;;;;;;5001460;28;20077;-76
2023/12/03 00:07:30;;;;;;;0.93;0.90;;;0.20;99.90;;;;;;4998548;28;20057;-78
2023/12/03 00:09:56;;;;;;;0.70;0.70;;;0.20;99.90;;;;;;4989666;28;20054;-76
2023/12/03 00:12:22;;;;;;;1.23;0.33;;;0.30;99.90;;;;;;5002348;28;20053;-76
2023/12/03 00:14:50;;;;;;;0.40;0.40;;;0.30;99.90;;;;;;4994603;28;20046;-76
2023/12/03 00:17:16;;;;;;;0.77;0.60;;;0.40;99.90;;;;;;4983569;28;20038;-78
2023/12/03 00:19:42;;;;;;;0.30;0.30;;;0.50;99.90;;;;;;4993616;28;20256;-77
2023/12/03 00:22:08;;;;;;;0.90;0.90;;;0.50;99.90;;;;;;5000189;28;20230;-77
2023/12/03 00:24:33;;;;;;;0.30;0.30;;;0.60;99.90;;;;;;4996745;28;20046;-78
2023/12/03 00:26:59;;;;;;;0.37;0.23;;;0.70;99.90;;;;;;4978140;28;20061;-75
2023/12/03 00:29:25;;;;;;;5.97;1.73;;;0.70;99.90;;;;;;5001570;28;20038;-76
2023/12/03 00:31:52;;;;;;;1.23;1.23;;;0.70;99.90;;;;;;4989766;28;20042;-77
2023/12/03 00:34:17;;;;;;;0.43;0.43;;;0.80;99.90;;;;;;4983278;28;20231;-78
2023/12/03 00:36:43;;;;;;;0.73;0.73;;;0.90;99.90;;;;;;4997292;28;20154;-78
2023/12/03 00:39:09;;;;;;;1.70;1.40;;;0.80;99.90;;;;;;4968072;28;20591;-77
2023/12/03 00:41:34;;;;;;;0.20;0.20;;;0.90;99.90;;;;;;4996874;28;20042;-76
2023/12/03 00:44:00;;;;;;;1.40;1.03;;;0.90;99.90;;;;;;4999750;28;20050;-75
2023/12/03 00:46:26;;;;;;;3.00;1.80;;;0.90;99.90;;;;;;4974482;28;20042;-78
2023/12/03 00:48:52;;;;;;;0.53;0.53;;;0.90;99.90;;;;;;4984610;28;20077;-75
2023/12/03 00:51:18;;;;;;;0.60;0.60;;;0.90;99.90;;;;;;4997001;28;20053;-77
2023/12/03 00:53:44;;;;;;;0.80;0.80;;;0.90;99.90;;;;;;4981954;28;20042;-78
2023/12/03 00:56:10;;;;;;;1.20;0.53;;;0.90;99.90;;;;;;5000723;28;20560;-75
2023/12/03 00:58:36;;;;;;;0.30;0.30;;;1.00;99.90;;;;;;5001456;28;20046;-76
2023/12/03 01:01:02;;;;;;;0.33;0.33;;;1.00;99.90;;;;;;5000893;28;20072;-78
2023/12/03 01:03:28;;;;;;;0.20;0.20;;;1.00;99.90;;;;;;5001364;28;20111;-79
2023/12/03 01:05:53;;;;;;;0.50;0.50;;;1.00;99.90;;;;;;5001143;28;20042;-76
2023/12/03 01:08:19;;;;;;;0.70;0.70;;;1.00;99.90;;;;;;5000261;28;20064;-76
2023/12/03 01:10:44;;;;;;;1.03;1.03;;;0.90;99.90;;;;;;5001527;28;20049;-78
2023/12/03 01:13:10;;;;;;;0.77;0.77;;;1.00;99.90;;;;;;5001196;28;20108;-78
2023/12/03 01:15:36;;;;;;;0.50;0.50;;;0.90;99.90;;;;;;5000852;28;20044;-76
2023/12/03 01:18:01;;;;;;;0.87;0.87;;;0.90;99.90;;;;;;4984109;28;20481;-77
2023/12/03 01:20:27;;;;;;;0.40;0.40;;;0.90;99.90;;;;;;5001156;28;20048;-78
2023/12/03 01:22:54;;;;;;;0.80;0.67;;;0.90;99.90;;;;;;4999864;28;20041;-77
2023/12/03 01:25:20;;;;;;;0.40;0.40;;;0.80;99.90;;;;;;5001189;28;20050;-76
2023/12/03 01:27:45;;;;;;;0.40;0.30;;;0.80;99.90;;;;;;5001035;28;20040;-76
2023/12/03 01:30:11;;;;;;;0.60;0.60;;;0.80;99.90;;;;;;4984366;28;20105;-79
2023/12/03 01:32:36;;;;;;;0.57;0.57;;;0.80;99.90;;;;;;5000931;28;20046;-78
2023/12/03 01:35:02;;;;;;;0.87;0.77;;;0.70;99.90;;;;;;5000333;28;20046;-77
2023/12/03 01:37:28;;;;;;;2.23;1.13;;;0.70;99.90;;;;;;4999395;28;20132;-77
2023/12/03 01:39:53;;;;;;;0.87;0.87;;;0.70;99.90;;;;;;5000442;28;20050;-78
2023/12/03 01:42:20;;;;;;;0.50;0.50;;;0.60;99.90;;;;;;5001700;28;20096;-77
2023/12/03 01:44:46;;;;;;;0.93;0.93;;;0.60;99.90;;;;;;5000992;28;20606;-78
2023/12/03 01:47:13;;;;;;;0.83;0.73;;;0.60;99.90;;;;;;5000173;28;20046;-76
2023/12/03 01:49:40;;;;;;;1.60;1.50;;;0.50;99.90;;;;;;5001213;28;20054;-78
2023/12/03 01:52:06;;;;;;;1.20;1.10;;;0.50;99.90;;;;;;4983358;28;20164;-77
2023/12/03 01:54:36;;;;;;;0.63;0.63;;;0.50;99.90;;;;;;5000254;28;20046;-77
2023/12/03 01:57:02;;;;;;;1.40;1.30;;;0.50;99.90;;;;;;5000388;28;20515;-75
2023/12/03 01:59:29;;;;;;;5.27;0.80;;;0.50;99.90;;;;;;4980191;28;20041;-76
2023/12/03 02:01:54;;;;;;;0.43;0.43;;;0.40;99.90;;;;;;4987944;28;20050;-75
2023/12/03 02:04:20;;;;;;;0.17;0.17;;;0.40;99.90;;;;;;4980612;28;20588;-79
2023/12/03 02:06:46;;;;;;;1.37;1.37;;;0.40;99.90;;;;;;4983311;28;20062;-78
2023/12/03 02:09:14;;;;;;;0.40;0.40;;;0.40;99.90;;;;;;4985372;28;20042;-78
2023/12/03 02:11:40;;;;;;;2.23;1.33;;;0.30;99.90;;;;;;4964460;28;20046;-76
2023/12/03 02:14:06;;;;;;;0.77;0.77;;;0.30;99.90;;;;;;4964282;28;20531;-78
2023/12/03 02:16:34;;;;;;;0.30;0.30;;;0.30;99.90;;;;;;4981157;28;20042;-78
2023/12/03 02:19:00;;;;;;;1.50;1.20;;;0.30;99.90;;;;;;4979768;28;20695;-76
2023/12/03 02:21:26;;;;;;;2.40;1.57;;;0.30;99.90;;;;;;4980142;28;20208;-79
2023/12/03 02:23:52;;;;;;;1.57;1.47;;;0.30;99.90;;;;;;4980351;28;20432;-78
2023/12/03 02:26:17;;;;;;;0.83;0.83;;;0.30;99.90;;;;;;4981032;28;20053;-76
2023/12/03 02:28:43;;;;;;;0.97;0.97;;;0.20;99.90;;;;;;4980451;28;20765;-76
2023/12/03 02:31:08;;;;;;;1.60;1.50;;;0.20;99.90;;;;;;4980302;28;20054;-78
2023/12/03 02:33:34;;;;;;;0.83;0.73;;;0.20;99.90;;;;;;4981025;28;20053;-77
2023/12/03 02:36:01;;;;;;;0.50;0.50;;;0.20;99.90;;;;;;4979709;28;20137;-77
2023/12/03 02:38:26;;;;;;;0.60;0.60;;;0.20;99.90;;;;;;4980069;28;20142;-77
2023/12/03 02:40:53;;;;;;;0.30;0.30;;;0.10;99.90;;;;;;4980107;28;20046;-78
2023/12/03 02:43:18;;;;;;;1.07;0.97;;;0.10;99.90;;;;;;4981246;28;20053;-78
2023/12/03 02:45:44;;;;;;;0.83;0.83;;;0.10;99.90;;;;;;4981660;28;20038;-78
2023/12/03 02:48:09;;;;;;;0.77;0.53;;;0.10;99.90;;;;;;4980336;28;20133;-77
2023/12/03 02:50:35;;;;;;;0.63;0.63;;;0.10;99.90;;;;;;4984521;28;20054;-78
2023/12/03 02:53:01;;;;;;;0.73;0.73;;;0.00;99.90;;;;;;4982994;28;20109;-79
2023/12/03 02:55:27;;;;;;;0.40;0.40;;;0.00;99.90;;;;;;5003578;28;20093;-76
2023/12/03 02:57:53;;;;;;;0.47;0.47;;;0.00;99.90;;;;;;5003372;28;20412;-77
2023/12/03 03:00:19;;;;;;;0.63;0.63;;;0.00;99.90;;;;;;5005359;28;20057;-78
2023/12/03 03:02:44;;;;;;;0.70;0.70;;;0.00;99.90;;;;;;5005404;28;20069;-77
2023/12/03 03:05:10;;;;;;;0.67;0.67;;;0.00;99.90;;;;;;5002932;28;20463;-75
2023/12/03 03:07:36;;;;;;;1.50;1.40;;;0.00;99.90;;;;;;5000690;28;20173;-75
2023/12/03 03:10:01;;;;;;;0.30;0.30;;;0.00;99.90;;;;;;4983555;28;20069;-78
2023/12/03 03:12:27;;;;;;;0.10;0.10;;;-0.10;99.90;;;;;;4985418;28;20749;-78
2023/12/03 03:14:52;;;;;;;0.90;0.90;;;-0.10;99.90;;;;;;4992195;28;20073;-74
2023/12/03 03:17:18;;;;;;;3.67;1.43;;;-0.10;99.90;;;;;;4986745;28;20489;-78
2023/12/03 03:19:43;;;;;;;4.43;1.03;;;-0.20;99.90;;;;;;4987523;28;20473;-77
2023/12/03 03:22:12;;;;;;;1.20;0.97;;;-0.20;99.90;;;;;;5002013;28;20100;-78
2023/12/03 03:24:38;;;;;;;0.67;0.67;;;-0.20;99.90;;;;;;5003277;28;20038;-76
2023/12/03 03:27:04;;;;;;;0.83;0.83;;;-0.30;99.90;;;;;;4987106;28;20181;-78
2023/12/03 03:29:30;;;;;;;0.63;0.63;;;-0.30;99.90;;;;;;4986725;28;20443;-78
2023/12/03 03:31:55;;;;;;;1.67;0.70;;;-0.30;99.90;;;;;;4993725;28;20082;-76
2023/12/03 03:34:21;;;;;;;4.60;0.50;;;-0.30;99.90;;;;;;4984510;28;20043;-76
2023/12/03 03:36:46;;;;;;;0.97;0.70;;;-0.30;99.90;;;;;;4982451;28;20508;-76
2023/12/03 03:39:12;;;;;;;0.50;0.50;;;-0.40;99.90;;;;;;4983604;28;20054;-78
2023/12/03 03:41:38;;;;;;;0.10;0.10;;;-0.30;99.90;;;;;;4984541;28;20093;-76
2023/12/03 03:44:03;;;;;;;0.47;0.47;;;-0.30;99.90;;;;;;4998328;28;20048;-75
2023/12/03 03:46:29;;;;;;;2.00;0.83;;;-0.30;99.90;;;;;;4983304;28;20450;-78
2023/12/03 03:48:54;;;;;;;0.47;0.40;;;-0.30;99.90;;;;;;4967038;28;20625;-79
2023/12/03 03:51:20;;;;;;;3.47;0.73;;;-0.30;99.90;;;;;;4995188;28;20404;-74
2023/12/03 03:53:45;;;;;;;1.23;1.13;;;-0.30;99.90;;;;;;5003784;28;20045;-77
2023/12/03 03:56:12;;;;;;;0.80;0.80;;;-0.30;99.90;;;;;;4995448;28;20119;-78
2023/12/03 03:58:38;;;;;;;0.87;0.83;;;-0.30;99.90;;;;;;4983434;28;20042;-78
2023/12/03 04:01:07;;;;;;;1.20;1.20;;;-0.30;99.90;;;;;;4995321;28;20403;-76
2023/12/03 04:03:33;;;;;;;1.70;0.67;;;-0.30;99.90;;;;;;4984645;28;20038;-77
2023/12/03 04:06:06;;;;;;;2.00;1.47;;;-0.30;99.90;;;;;;4991028;28;20117;-78
2023/12/03 04:08:33;;;;;;;3.53;2.27;;;-0.40;99.90;;;;;;4992973;28;20049;-77
2023/12/03 04:11:03;;;;;;;1.87;1.83;;;-0.40;99.90;;;;;;4985707;28;20037;-77
2023/12/03 04:13:29;;;;;;;1.30;1.20;;;-0.40;99.90;;;;;;5002195;28;20467;-75
2023/12/03 04:15:54;;;;;;;1.13;1.13;;;-0.40;99.90;;;;;;4993564;28;20057;-77
2023/12/03 04:18:20;;;;;;;0.50;0.50;;;-0.50;99.90;;;;;;4966355;28;20038;-78
2023/12/03 04:20:45;;;;;;;1.27;1.23;;;-0.40;99.90;;;;;;4983403;28;20602;-76
2023/12/03 04:23:11;;;;;;;1.50;1.43;;;-0.40;99.90;;;;;;4993429;28;20613;-76
2023/12/03 04:25:36;;;;;;;0.40;0.40;;;-0.40;99.90;;;;;;4999614;28;20393;-77
2023/12/03 04:28:03;;;;;;;0.67;0.67;;;-0.40;99.90;;;;;;4985601;28;20038;-79
2023/12/03 04:30:29;;;;;;;1.63;1.33;;;-0.50;99.90;;;;;;4993713;28;20485;-78
2023/12/03 04:32:55;;;;;;;1.37;1.27;;;-0.40;99.90;;;;;;4998600;28;20179;-74
2023/12/03 04:35:21;;;;;;;2.83;0.70;;;-0.40;99.90;;;;;;5001493;28;20057;-77
2023/12/03 04:37:46;;;;;;;1.20;1.10;;;-0.40;99.90;;;;;;4996750;28;20133;-79
2023/12/03 04:40:12;;;;;;;2.60;1.93;;;-0.40;99.90;;;;;;4983462;28;20042;-78
2023/12/03 04:42:37;;;;;;;1.47;1.37;;;-0.40;99.90;;;;;;4965526;28;20808;-76
2023/12/03 04:45:03;;;;;;;2.03;1.70;;;-0.40;99.90;;;;;;4965823;28;20373;-77
2023/12/03 04:47:29;;;;;;;2.20;2.10;;;-0.40;99.90;;;;;;4984444;28;20124;-78
2023/12/03 04:49:54;;;;;;;1.57;1.47;;;-0.50;99.90;;;;;;5001010;28;20069;-78
2023/12/03 04:52:20;;;;;;;2.93;2.00;;;-0.40;99.90;;;;;;4998591;28;20045;-75
2023/12/03 04:54:46;;;;;;;2.20;2.10;;;-0.40;99.90;;;;;;4985779;28;20555;-75
2023/12/03 04:57:11;;;;;;;4.73;3.60;;;-0.40;99.90;;;;;;4984733;28;20089;-79
2023/12/03 04:59:37;;;;;;;2.73;2.53;;;-0.40;99.90;;;;;;4982312;28;20042;-76
2023/12/03 05:02:02;;;;;;;2.83;2.30;;;-0.40;99.90;;;;;;4974897;28;20524;-76
2023/12/03 05:04:28;;;;;;;2.20;2.00;;;-0.40;99.90;;;;;;5001357;28;20411;-77
2023/12/03 05:06:54;;;;;;;4.00;3.63;;;-0.50;99.90;;;;;;4967877;28;20516;-78
2023/12/03 05:09:19;;;;;;;4.07;3.03;;;-0.40;99.90;;;;;;4992909;28;20046;-77
2023/12/03 05:11:45;;;;;;;4.67;4.37;;;-0.40;99.90;;;;;;4965778;28;20077;-77
2023/12/03 05:14:11;;;;;;;2.27;2.17;;;-0.40;99.90;;;;;;4982299;28;20046;-77
2023/12/03 05:16:38;;;;;;;2.70;2.50;;;-0.50;99.90;;;;;;4984097;28;20054;-79
2023/12/03 05:19:03;;;;;;;2.83;2.73;;;-0.40;99.90;;;;;;5000759;28;20539;-77
2023/12/03 05:21:29;;;;;;;2.13;1.93;;;-0.40;99.90;;;;;;4999910;28;20062;-76
2023/12/03 05:23:54;;;;;;;4.00;3.60;;;-0.40;99.90;;;;;;5000833;28;20037;-76
2023/12/03 05:26:20;;;;;;;1.87;1.77;;;-0.30;99.90;;;;;;5000706;28;20050;-79
2023/12/03 05:28:46;;;;;;;2.03;1.90;;;-0.40;99.90;;;;;;5001801;28;20053;-77
2023/12/03 05:31:11;;;;;;;4.63;1.67;;;-0.40;99.90;;;;;;5000707;28;20129;-76
2023/12/03 05:33:37;;;;;;;2.80;2.60;;;-0.40;99.90;;;;;;5000512;28;20049;-77
2023/12/03 05:36:03;;;;;;;2.80;2.60;;;-0.40;99.90;;;;;;5000168;28;20432;-79
2023/12/03 05:38:28;;;;;;;3.47;2.87;;;-0.40;99.90;;;;;;4999225;28;20073;-74
2023/12/03 05:40:54;;;;;;;3.03;2.83;;;-0.50;99.90;;;;;;5000566;28;20046;-78
2023/12/03 05:43:19;;;;;;;3.10;2.80;;;-0.50;99.90;;;;;;4995247;28;20112;-76
2023/12/03 05:45:45;;;;;;;7.37;2.87;;;-0.50;99.90;;;;;;4965746;28;20046;-79
2023/12/03 05:48:11;;;;;;;2.93;2.60;;;-0.60;99.90;;;;;;4964699;28;20046;-77
2023/12/03 05:50:36;;;;;;;2.50;2.30;;;-0.60;99.90;;;;;;4980932;28;20073;-77
2023/12/03 05:53:02;;;;;;;4.37;3.23;;;-0.60;99.90;;;;;;4979430;28;20086;-77
2023/12/03 05:55:28;;;;;;;4.93;4.60;;;-0.60;99.90;;;;;;4982204;28;20096;-77
2023/12/03 05:57:54;;;;;;;3.17;2.70;;;-0.60;99.90;;;;;;4980941;28;20517;-78
2023/12/03 06:00:19;;;;;;;3.00;2.77;;;-0.60;99.90;;;;;;4980931;28;20054;-76
2023/12/03 06:02:45;;;;;;;2.63;2.40;;;-0.70;99.90;;;;;;4965282;28;20043;-78
2023/12/03 06:05:10;;;;;;;2.30;2.20;;;-0.70;99.90;;;;;;4980759;28;20042;-78
2023/12/03 06:07:36;;;;;;;4.53;2.57;;;-0.60;99.90;;;;;;4981497;28;20438;-77
2023/12/03 06:10:02;;;;;;;2.90;2.70;;;-0.60;99.90;;;;;;5001190;28;20050;-76
2023/12/03 06:12:27;;;;;;;3.27;3.07;;;-0.60;99.90;;;;;;4974683;28;20477;-77
2023/12/03 06:14:53;;;;;;;4.17;3.77;;;-0.60;99.90;;;;;;4980752;28;20050;-79
2023/12/03 06:17:18;;;;;;;6.77;3.47;;;-0.60;99.90;;;;;;4981221;28;20088;-78
2023/12/03 06:19:44;;;;;;;2.83;2.63;;;-0.60;99.90;;;;;;4981323;28;20055;-76
2023/12/03 06:22:10;;;;;;;4.63;4.23;;;-0.60;99.90;;;;;;4964674;28;20062;-78
2023/12/03 06:24:36;;;;;;;4.53;2.60;;;-0.60;99.90;;;;;;5000720;28;20069;-79
2023/12/03 06:27:02;;;;;;;6.13;2.93;;;-0.60;99.90;;;;;;5003991;28;20052;-79
2023/12/03 06:29:27;;;;;;;11.23;5.77;;;-0.60;99.90;;;;;;4987875;28;20042;-79
2023/12/03 06:31:53;;;;;;;3.67;3.47;;;-0.70;99.90;;;;;;4987726;28;20068;-75
2023/12/03 06:34:18;;;;;;;3.17;2.87;;;-0.70;99.90;;;;;;4996476;28;20042;-79
2023/12/03 06:36:45;;;;;;;4.73;4.13;;;-0.60;99.90;;;;;;4983975;28;20042;-76
2023/12/03 06:39:10;;;;;;;3.53;3.33;;;-0.60;99.90;;;;;;4983851;28;20094;-78
2023/12/03 06:41:37;;;;;;;4.00;3.70;;;-0.60;99.90;;;;;;4967981;28;20461;-79
2023/12/03 06:44:02;;;;;;;4.73;4.37;;;-0.50;99.90;;;;;;4984394;28;20409;-79
2023/12/03 06:46:28;;;;;;;15.87;5.47;;;-0.40;99.90;;;;;;4968377;28;20054;-76
2023/12/03 06:48:54;;;;;;;6.73;5.20;;;-0.40;99.90;;;;;;4984421;28;20047;-77
2023/12/03 06:51:19;;;;;;;7.57;5.63;;;-0.40;99.90;;;;;;4983419;28;20050;-77
2023/12/03 06:53:45;;;;;;;4.00;3.67;;;-0.40;99.90;;;;;;4985189;28;20046;-80
2023/12/03 06:56:11;;;;;;;9.87;3.57;;;-0.40;99.90;;;;;;4967466;28;20192;-78
2023/12/03 06:58:37;;;;;;;4.23;3.97;;;-0.30;99.90;;;;;;4983817;28;20607;-77
2023/12/03 07:01:03;;;;;;;5.00;4.60;;;-0.30;99.90;;;;;;4984343;28;20106;-79
2023/12/03 07:03:28;;;;;;;6.13;5.50;;;-0.20;99.90;;;;;;4975022;28;20489;-79
2023/12/03 07:05:59;;;;;;;7.20;6.70;;;-0.10;99.90;;;;;;4982821;28;20145;-79
2023/12/03 07:08:25;;;;;;;5.13;4.73;;;-0.10;99.90;;;;;;4991743;28;20042;-79
2023/12/03 07:10:50;;;;;;;17.27;7.27;;;0.00;99.90;;;;;;5003671;28;20054;-76
2023/12/03 07:13:16;;;;;;;8.20;7.43;;;0.00;99.90;;;;;;4999032;28;20042;-77
2023/12/03 07:15:42;;;;;;;11.73;9.10;;;0.10;99.90;;;;;;5003231;28;20045;-77
2023/12/03 07:18:07;;;;;;;10.57;6.80;;;0.10;99.90;;;;;;5003145;28;20045;-79
2023/12/03 07:20:33;;;;;;;7.03;6.27;;;0.20;99.90;;;;;;5002739;28;20048;-79
2023/12/03 07:22:58;;;;;;;12.30;8.70;;;0.20;99.90;;;;;;5002845;28;20127;-77
2023/12/03 07:25:24;;;;;;;12.10;10.90;;;0.20;99.90;;;;;;5001127;28;20679;-76
2023/12/03 07:27:49;;;;;;;13.20;8.77;;;0.30;99.90;;;;;;5002861;28;20056;-76
2023/12/03 07:30:15;;;;;;;10.57;8.73;;;0.30;99.90;;;;;;5003293;28;20207;-79
2023/12/03 07:32:41;;;;;;;9.43;8.53;;;0.40;99.90;;;;;;5002462;28;20124;-77
2023/12/03 07:35:07;;;;;;;7.90;7.00;;;0.40;99.90;;;;;;4996632;28;20042;-78
2023/12/03 07:37:32;;;;;;;9.53;8.63;;;0.40;99.90;;;;;;4995327;28;20046;-76
2023/12/03 07:39:58;;;;;;;9.83;8.87;;;0.50;99.90;;;;;;4982464;28;20042;-79
2023/12/03 07:42:27;;;;;;;8.90;8.00;;;0.50;99.90;;;;;;4981587;28;20038;-78
2023/12/03 07:44:52;;;;;;;8.47;7.83;;;0.60;99.90;;;;;;4982773;28;20047;-76
2023/12/03 07:47:18;;;;;;;11.67;10.50;;;0.60;99.90;;;;;;4995204;28;20042;-80
2023/12/03 07:49:44;;;;;;;9.73;9.13;;;0.70;99.90;;;;;;4983182;28;20108;-78
2023/12/03 07:52:09;;;;;;;13.70;12.53;;;0.70;99.90;;;;;;4972192;28;20085;-78
2023/12/03 07:54:35;;;;;;;13.43;12.23;;;0.70;99.90;;;;;;5002883;28;20058;-76
2023/12/03 07:57:01;;;;;;;12.83;11.73;;;0.80;99.90;;;;;;5002421;28;20176;-79
2023/12/03 07:59:26;;;;;;;11.93;10.97;;;0.80;99.90;;;;;;5003947;28;20046;-79
2023/12/03 08:01:53;;;;;;;13.47;12.10;;;0.80;99.90;;;;;;5003466;28;20176;-78
2023/12/03 08:04:19;;;;;;;13.70;11.07;;;0.80;99.90;;;;;;4996292;28;20057;-75
2023/12/03 08:06:44;;;;;;;9.57;8.70;;;0.80;99.90;;;;;;4982344;28;20497;-79
2023/12/03 08:09:11;;;;;;;11.83;10.87;;;0.80;99.90;;;;;;4996819;28;20081;-77
2023/12/03 08:11:37;;;;;;;11.53;10.53;;;0.80;99.90;;;;;;5002367;28;20441;-77
2023/12/03 08:14:03;;;;;;;12.73;11.57;;;0.90;99.90;;;;;;5001672;28;20180;-78
2023/12/03 08:16:29;;;;;;;9.83;8.97;;;0.90;99.90;;;;;;5002223;28;20129;-77
2023/12/03 08:18:54;;;;;;;17.30;12.50;;;0.90;99.90;;;;;;5002002;28;20508;-76
2023/12/03 08:21:20;;;;;;;42.83;12.43;;;0.90;99.90;;;;;;5001462;28;20212;-76
2023/12/03 08:23:46;;;;;;;16.30;12.77;;;0.90;99.90;;;;;;5001874;28;20050;-78
2023/12/03 08:26:12;;;;;;;15.97;14.47;;;0.90;99.90;;;;;;5003170;28;20038;-78
2023/12/03 08:28:37;;;;;;;17.97;12.17;;;1.00;99.90;;;;;;5001996;28;20551;-75
2023/12/03 08:31:03;;;;;;;16.97;13.70;;;1.00;99.90;;;;;;5001614;28;20050;-75
2023/12/03 08:33:29;;;;;;;16.13;12.97;;;1.00;99.90;;;;;;5002694;28;20038;-79
2023/12/03 08:35:56;;;;;;;13.83;12.27;;;1.00;99.90;;;;;;5001116;28;20081;-78
2023/12/03 08:38:22;;;;;;;14.37;13.17;;;1.00;99.90;;;;;;5001451;28;20053;-74
2023/12/03 08:40:51;;;;;;;18.43;14.70;;;1.00;99.90;;;;;;4979600;28;20042;-75
2023/12/03 08:43:17;;;;;;;13.03;11.93;;;1.00;99.90;;;;;;4982662;28;20073;-78
2023/12/03 08:45:43;;;;;;;12.87;11.40;;;1.00;99.90;;;;;;4982078;28;20641;-76
2023/12/03 08:48:08;;;;;;;16.67;14.97;;;1.10;99.90;;;;;;4980637;28;20042;-78
2023/12/03 08:50:34;;;;;;;18.00;15.93;;;1.10;99.90;;;;;;4982122;28;20041;-77
2023/12/03 08:52:59;;;;;;;14.17;12.80;;;1.10;99.90;;;;;;4983592;28;20045;-77
2023/12/03 08:55:25;;;;;;;14.07;12.67;;;1.10;99.90;;;;;;4983077;28;20050;-77
2023/12/03 08:57:51;;;;;;;15.10;13.37;;;1.10;99.90;;;;;;4965232;28;20053;-77
2023/12/03 09:00:17;;;;;;;22.73;14.57;;;1.10;99.90;;;;;;4965896;28;20062;-78
2023/12/03 09:02:48;;;;;;;17.63;14.97;;;1.10;99.90;;;;;;4970666;28;20063;-78
2023/12/03 09:05:14;;;;;;;15.52;14.13;;;1.10;99.90;;;;;;4999695;28;20050;-76
2023/12/03 09:07:40;;;;;;;17.07;15.43;;;1.10;99.90;;;;;;5002182;28;20049;-78
2023/12/03 09:10:06;;;;;;;18.63;15.10;;;1.10;99.90;;;;;;4998430;28;20451;-77
2023/12/03 09:12:32;;;;;;;17.47;16.20;;;1.10;99.90;;;;;;4994133;28;20070;-77
2023/12/03 09:14:58;;;;;;;18.33;16.63;;;1.20;99.90;;;;;;4991803;28;20081;-77
2023/12/03 09:17:23;;;;;;;20.93;16.43;;;1.10;99.90;;;;;;4989194;28;20495;-75
2023/12/03 09:19:49;;;;;;;17.97;14.77;;;1.20;99.90;;;;;;4992356;28;20056;-74
2023/12/03 09:22:15;;;;;;;21.20;19.13;;;1.10;99.90;;;;;;4993054;28;20516;-76
2023/12/03 09:24:44;;;;;;;16.77;14.87;;;1.10;99.90;;;;;;4991078;28;21427;-77
2023/12/03 09:27:09;;;;;;;17.93;16.33;;;1.20;99.90;;;;;;4994358;28;20061;-78
2023/12/03 09:29:36;;;;;;;19.93;13.77;;;1.10;99.90;;;;;;4997652;28;20633;-77
2023/12/03 09:32:03;;;;;;;20.20;14.47;;;1.10;99.90;;;;;;4983801;28;20053;-77
2023/12/03 09:34:29;;;;;;;19.53;15.70;;;1.20;99.90;;;;;;4989577;28;20042;-77
2023/12/03 09:36:54;;;;;;;37.07;14.43;;;1.10;99.90;;;;;;4994239;28;20527;-76
2023/12/03 09:39:20;;;;;;;21.57;13.70;;;1.10;99.90;;;;;;4969162;28;20030;-76
2023/12/03 09:41:50;;;;;;;16.73;15.10;;;1.20;99.90;;;;;;5004624;28;20460;-77
2023/12/03 09:44:31;;;;;;;14.80;12.53;;;1.10;99.90;;;;;;4988852;28;20126;-77
2023/12/03 09:46:57;;;;;;;15.77;12.97;;;1.20;99.90;;;;;;4995180;28;20046;-76
2023/12/03 09:49:23;;;;;;;18.57;16.23;;;1.20;99.90;;;;;;4989218;28;20254;-77
2023/12/03 09:51:50;;;;;;;11.57;10.57;;;1.20;99.90;;;;;;4979033;28;20556;-76
2023/12/03 09:54:15;;;;;;;16.77;15.20;;;1.20;99.90;;;;;;4996698;28;20511;-77
2023/12/03 09:56:44;;;;;;;16.97;15.47;;;1.20;99.90;;;;;;4993268;28;20044;-75
2023/12/03 09:59:13;;;;;;;17.20;13.27;;;1.20;99.90;;;;;;4990834;28;20046;-76
2023/12/03 10:01:39;;;;;;;13.57;12.27;;;1.20;99.90;;;;;;4977409;28;20057;-76
2023/12/03 10:04:05;;;;;;;14.47;12.90;;;1.20;99.90;;;;;;4991765;28;20046;-79
2023/12/03 10:06:34;;;;;;;14.77;12.80;;;1.20;99.90;;;;;;4988785;28;20528;-75
2023/12/03 10:09:02;;;;;;;13.70;11.20;;;1.20;99.90;;;;;;5007145;28;20575;-77
2023/12/03 10:11:39;;;;;;;14.07;13.00;;;1.30;99.90;;;;;;4977638;28;20073;-78
2023/12/03 10:14:09;;;;;;;13.50;12.27;;;1.30;99.90;;;;;;4995306;28;20046;-78
2023/12/03 10:16:35;;;;;;;12.63;10.57;;;1.30;99.90;;;;;;4984214;28;20046;-77
2023/12/03 10:19:00;;;;;;;14.27;12.73;;;1.30;99.90;;;;;;4976481;28;20103;-77
2023/12/03 10:21:27;;;;;;;15.70;14.57;;;1.30;99.90;;;;;;4995540;28;20042;-75
2023/12/03 10:24:04;;;;;;;16.33;12.90;;;1.30;99.90;;;;;;5006786;28;20503;-77
2023/12/03 10:26:30;;;;;;;14.43;12.13;;;1.40;99.90;;;;;;4981412;28;20064;-76
2023/12/03 10:28:56;;;;;;;20.13;14.53;;;1.40;99.90;;;;;;4975416;28;20049;-76
2023/12/03 10:31:22;;;;;;;13.67;12.40;;;1.40;99.90;;;;;;4991343;28;20496;-77
2023/12/03 10:33:48;;;;;;;15.13;13.60;;;1.40;99.90;;;;;;4986586;28;20049;-74
2023/12/03 10:36:13;;;;;;;14.67;13.37;;;1.40;99.90;;;;;;4979899;28;20054;-74
2023/12/03 10:38:41;;;;;;;15.63;14.07;;;1.40;99.90;;;;;;4984018;28;20068;-77
2023/12/03 10:41:09;;;;;;;20.90;14.27;;;1.40;99.90;;;;;;4999830;28;20053;-75
2023/12/03 10:43:36;;;;;;;15.60;14.40;;;1.50;99.90;;;;;;4982967;28;20173;-75
2023/12/03 10:46:06;;;;;;;13.13;12.00;;;1.40;99.90;;;;;;4988068;28;20460;-77
2023/12/03 10:48:33;;;;;;;11.30;10.07;;;1.40;99.90;;;;;;4981006;28;20094;-75
2023/12/03 10:51:04;;;;;;;15.07;13.53;;;1.40;99.90;;;;;;4979301;28;20051;-74
2023/12/03 10:53:32;;;;;;;11.47;10.37;;;1.40;99.90;;;;;;4997014;28;20042;-76
2023/12/03 10:55:57;;;;;;;24.67;13.73;;;1.40;99.90;;;;;;4999432;28;20042;-74
2023/12/03 10:58:25;;;;;;;11.00;10.00;;;1.30;99.90;;;;;;5000110;28;20052;-73
2023/12/03 11:01:00;;;;;;;13.87;11.80;;;1.40;99.90;;;;;;4983221;28;20128;-73
2023/12/03 11:03:43;;;;;;;14.80;11.47;;;1.30;99.90;;;;;;5001511;28;20207;-72
2023/12/03 11:06:12;;;;;;;15.73;13.57;;;1.30;99.90;;;;;;4994701;28;20191;-71
2023/12/03 11:08:39;;;;;;;15.80;12.10;;;1.30;99.90;;;;;;4985133;28;20041;-71
2023/12/03 11:11:08;;;;;;;14.20;12.83;;;1.30;99.90;;;;;;5002535;28;20050;-71
2023/12/03 11:13:36;;;;;;;13.53;12.53;;;1.30;99.90;;;;;;5010402;28;20050;-71
2023/12/03 11:16:03;;;;;;;14.90;10.83;;;1.30;99.90;;;;;;5004019;28;20046;-73
2023/12/03 11:18:29;;;;;;;12.47;10.53;;;1.30;99.90;;;;;;4984193;28;20041;-72
2023/12/03 11:21:02;;;;;;;14.87;13.47;;;1.30;99.90;;;;;;4991827;28;20042;-74
2023/12/03 11:23:53;;;;;;;13.33;11.97;;;1.30;99.90;;;;;;4967708;28;20046;-71
2023/12/03 11:26:18;;;;;;;16.80;9.93;;;1.30;99.90;;;;;;5015098;28;20050;-71
2023/12/03 11:28:54;;;;;;;17.30;11.23;;;1.30;99.90;;;;;;5001556;28;20092;-71
2023/12/03 11:31:20;;;;;;;14.43;12.80;;;1.30;99.90;;;;;;4998291;28;20041;-72
2023/12/03 11:33:58;;;;;;;12.80;11.70;;;1.30;99.90;;;;;;4983687;28;20065;-72
2023/12/03 11:36:52;;;;;;;17.73;12.80;;;1.30;99.90;;;;;;4987493;28;20045;-72
2023/12/03 11:39:19;;;;;;;16.43;13.10;;;1.30;99.90;;;;;;4990059;28;20531;-74
2023/12/03 11:41:45;;;;;;;16.50;15.07;;;1.30;99.90;;;;;;4975645;28;20045;-74
2023/12/03 11:44:26;;;;;;;21.10;14.97;;;1.30;99.90;;;;;;4983266;28;20484;-74
2023/12/03 11:47:06;;;;;;;13.17;11.93;;;1.40;99.90;;;;;;4984539;28;20662;-74
2023/12/03 11:49:36;;;;;;;18.10;16.30;;;1.40;99.90;;;;;;4997829;28;20068;-76
2023/12/03 11:52:03;;;;;;;19.03;13.23;;;1.50;99.90;;;;;;4996685;28;20046;-74
2023/12/03 11:54:37;;;;;;;15.97;14.30;;;1.50;99.90;;;;;;4990961;28;20039;-74
2023/12/03 11:57:02;;;;;;;13.20;11.97;;;1.50;99.90;;;;;;4997148;28;20113;-74
2023/12/03 11:59:28;;;;;;;15.13;13.80;;;1.60;99.90;;;;;;4986359;28;20144;-74
2023/12/03 12:01:53;;;;;;;13.77;12.37;;;1.60;99.90;;;;;;4992136;28;20042;-75
2023/12/03 12:04:23;;;;;;;17.63;15.57;;;1.50;99.90;;;;;;4984851;28;20578;-74
2023/12/03 12:06:53;;;;;;;18.40;15.40;;;1.50;99.90;;;;;;4968648;28;20058;-75
2023/12/03 12:09:23;;;;;;;15.83;14.33;;;1.60;99.90;;;;;;4995504;28;20382;-73
2023/12/03 12:11:52;;;;;;;25.63;14.97;;;1.50;99.90;;;;;;4989605;28;20133;-75
2023/12/03 12:14:18;;;;;;;12.73;11.53;;;1.50;99.90;;;;;;4992482;28;20046;-75
2023/12/03 12:16:46;;;;;;;16.60;14.87;;;1.50;99.90;;;;;;4995037;28;20520;-75
2023/12/03 12:19:15;;;;;;;16.10;11.93;;;1.50;99.90;;;;;;4979798;28;20033;-73
2023/12/03 12:21:57;;;;;;;15.90;14.47;;;1.50;99.90;;;;;;4991619;28;20057;-75
2023/12/03 12:24:23;;;;;;;22.35;17.80;;;1.50;99.90;;;;;;4994376;28;20050;-74
2023/12/03 12:26:50;;;;;;;14.63;13.10;;;1.50;99.90;;;;;;5002548;28;20038;-74
2023/12/03 12:29:17;;;;;;;15.80;14.17;;;1.60;99.90;;;;;;5002468;28;20053;-72
2023/12/03 12:31:43;;;;;;;15.13;13.20;;;1.60;99.90;;;;;;4980172;28;20038;-71
2023/12/03 12:34:10;;;;;;;17.90;13.13;;;1.60;99.90;;;;;;4989683;28;20053;-72
2023/12/03 12:36:36;;;;;;;22.47;13.30;;;1.70;99.90;;;;;;4987801;28;20044;-73
2023/12/03 12:39:01;;;;;;;13.87;12.37;;;1.70;99.90;;;;;;4992872;28;20539;-72
2023/12/03 12:41:37;;;;;;;12.57;11.53;;;1.80;99.90;;;;;;4982315;28;20057;-73